Terminal Aerodrome Forecast
Issued by NWS Pocatello, ID

Home | Current Version | Previous Version | Text Only | Print | Product List | Glossary On
Versions: 1 2 3 4 5 6 7 8 9 10 11 12 13 14 15 16 17 18 19
000
FTUS45 KPIH 262300
TAFPIH
TAF
KPIH 262322Z 2700/2724 21012KT P6SM BKN200
     FM270500 18008KT P6SM FEW120 BKN200
     FM271400 18008KT P6SM BKN120=

USA.gov is the U.S. government's official web portal to all federal, state and local government web resources and services.